Time,TemperatureF,DewpointF,PressureIn,WindDirection,WindDirectionDegrees,WindSpeedMPH,WindSpeedGustMPH,Humidity,HourlyPrecipIn,Conditions,Clouds,dailyrainin,SoftwareType,DateUTC
2013-05-11 00:06:00,39.2,24.8,29.56,WSW,245,0.0,2.0,56,0.00,,,0.00,Weather View 32 v70,2013-05-11 08:06:00,
2013-05-11 00:28:00,36.8,23.0,29.56,WSW,245,0.0,0.0,57,0.00,,,0.00,Weather View 32 v70,2013-05-11 08:28:00,
2013-05-11 00:58:00,35.4,22.1,29.55,WSW,245,0.0,0.0,58,0.00,,,0.00,Weather View 32 v70,2013-05-11 08:58:00,
2013-05-11 01:06:00,35.4,22.1,29.55,WSW,245,0.0,0.0,58,0.00,,,0.00,Weather View 32 v70,2013-05-11 09:06:00,
2013-05-11 01:28:00,34.2,22.1,29.55,WSW,245,0.0,0.0,61,0.00,,,0.00,Weather View 32 v70,2013-05-11 09:28:00,
2013-05-11 01:58:00,33.8,23.6,29.54,WSW,245,0.0,0.0,66,0.00,,,0.00,Weather View 32 v70,2013-05-11 09:58:00,
2013-05-11 02:07:00,33.8,23.6,29.54,WSW,245,0.0,0.0,66,0.00,,,0.00,Weather View 32 v70,2013-05-11 10:07:00,
2013-05-11 02:27:00,33.3,24.9,29.54,WSW,245,0.0,0.0,71,0.00,,,0.00,Weather View 32 v70,2013-05-11 10:27:00,
2013-05-11 02:57:00,33.3,24.2,29.53,WSW,245,0.0,0.0,69,0.00,,,0.00,Weather View 32 v70,2013-05-11 10:57:00,
2013-05-11 03:07:00,33.3,24.2,29.53,WSW,245,0.0,0.0,69,0.00,,,0.00,Weather View 32 v70,2013-05-11 11:07:00,
2013-05-11 03:27:00,33.2,23.4,29.52,WSW,245,0.0,0.0,67,0.00,,,0.00,Weather View 32 v70,2013-05-11 11:27:00,
2013-05-11 03:58:00,32.7,24.7,29.52,WSW,245,0.0,0.0,72,0.00,,,0.00,Weather View 32 v70,2013-05-11 11:58:00,
2013-05-11 04:08:00,32.7,24.7,29.52,WSW,245,0.0,0.0,72,0.00,,,0.00,Weather View 32 v70,2013-05-11 12:08:00,
2013-05-11 04:28:00,32.1,24.1,29.51,WSW,245,0.0,0.0,72,0.00,,,0.00,Weather View 32 v70,2013-05-11 12:28:00,
2013-05-11 04:58:00,31.1,23.5,29.50,WSW,245,0.0,0.0,73,0.00,,,0.00,Weather View 32 v70,2013-05-11 12:58:00,
2013-05-11 05:09:00,31.1,23.5,29.50,WSW,245,0.0,0.0,73,0.00,,,0.00,Weather View 32 v70,2013-05-11 13:09:00,
2013-05-11 05:28:00,30.5,23.5,29.50,WSW,245,0.0,1.0,75,0.00,,,0.00,Weather View 32 v70,2013-05-11 13:28:00,
2013-05-11 05:58:00,30.9,24.2,29.49,WSW,245,0.0,1.0,76,0.00,,,0.00,Weather View 32 v70,2013-05-11 13:58:00,
2013-05-11 06:09:00,30.9,24.2,29.49,WSW,245,0.0,1.0,76,0.00,,,0.00,Weather View 32 v70,2013-05-11 14:09:00,
2013-05-11 06:28:00,32.7,26.3,29.48,WSW,245,0.0,0.0,77,0.00,,,0.00,Weather View 32 v70,2013-05-11 14:28:00,
2013-05-11 06:58:00,37.0,25.9,29.48,WSW,245,0.0,0.0,64,0.00,,,0.00,Weather View 32 v70,2013-05-11 14:58:00,
2013-05-11 07:09:00,37.0,25.9,29.48,WSW,245,0.0,0.0,64,0.00,,,0.00,Weather View 32 v70,2013-05-11 15:09:00,
2013-05-11 07:27:00,39.8,26.6,29.48,WSW,245,0.0,2.0,59,0.00,,,0.00,Weather View 32 v70,2013-05-11 15:27:00,
2013-05-11 07:57:00,40.0,26.4,29.47,WSW,245,1.0,2.0,58,0.00,,,0.00,Weather View 32 v70,2013-05-11 15:57:00,
2013-05-11 08:00:00,40.0,26.4,29.47,WSW,245,1.0,2.0,58,0.00,,,0.00,Weather View 32 v70,2013-05-11 16:00:00,
2013-05-11 08:27:00,41.4,25.5,29.46,WSW,245,0.0,2.0,53,0.00,,,0.00,Weather View 32 v70,2013-05-11 16:27:00,
2013-05-11 08:58:00,43.8,25.9,29.46,WSW,245,0.0,3.0,49,0.00,,,0.00,Weather View 32 v70,2013-05-11 16:58:00,
2013-05-11 09:00:00,43.8,25.9,29.46,WSW,245,0.0,3.0,49,0.00,,,0.00,Weather View 32 v70,2013-05-11 17:00:00,
2013-05-11 09:28:00,45.8,25.1,29.45,WSW,245,1.0,4.0,44,0.00,,,0.00,Weather View 32 v70,2013-05-11 17:28:00,
2013-05-11 09:58:00,47.9,25.3,29.44,WSW,245,1.0,4.0,41,0.00,,,0.00,Weather View 32 v70,2013-05-11 17:58:00,
2013-05-11 10:00:00,47.9,25.3,29.44,WSW,245,1.0,4.0,41,0.00,,,0.00,Weather View 32 v70,2013-05-11 18:00:00,
2013-05-11 10:28:00,49.9,25.9,29.43,WSW,245,1.0,3.0,39,0.00,,,0.00,Weather View 32 v70,2013-05-11 18:28:00,
2013-05-11 10:58:00,52.8,24.4,29.42,West,259,0.0,6.0,33,0.00,,,0.00,Weather View 32 v70,2013-05-11 18:58:00,
2013-05-11 11:00:00,52.8,24.4,29.42,West,259,0.0,6.0,33,0.00,,,0.00,Weather View 32 v70,2013-05-11 19:00:00,
2013-05-11 11:28:00,54.8,25.4,29.40,West,272,2.0,6.0,32,0.00,,,0.00,Weather View 32 v70,2013-05-11 19:28:00,
2013-05-11 11:58:00,55.2,26.5,29.40,West,271,4.0,6.0,33,0.00,,,0.00,Weather View 32 v70,2013-05-11 19:58:00,
2013-05-11 12:00:00,55.2,26.5,29.40,West,271,4.0,6.0,33,0.00,,,0.00,Weather View 32 v70,2013-05-11 20:00:00,
2013-05-11 12:27:00,57.3,24.4,29.39,West,271,2.0,7.0,28,0.00,,,0.00,Weather View 32 v70,2013-05-11 20:27:00,
2013-05-11 12:57:00,58.0,25.0,29.38,WSW,242,2.0,7.0,28,0.00,,,0.00,Weather View 32 v70,2013-05-11 20:57:00,
2013-05-11 13:00:00,58.0,25.0,29.38,WSW,242,2.0,7.0,28,0.00,,,0.00,Weather View 32 v70,2013-05-11 21:00:00,
2013-05-11 13:27:00,58.2,24.3,29.37,WSW,254,3.0,8.0,27,0.00,,,0.00,Weather View 32 v70,2013-05-11 21:27:00,
2013-05-11 13:58:00,57.6,24.7,29.36,SW,235,0.0,8.0,28,0.00,,,0.00,Weather View 32 v70,2013-05-11 21:58:00,
2013-05-11 14:00:00,57.6,24.7,29.36,SW,235,0.0,8.0,28,0.00,,,0.00,Weather View 32 v70,2013-05-11 22:00:00,
2013-05-11 14:28:00,58.2,24.3,29.35,WSW,242,3.0,9.0,27,0.00,,,0.00,Weather View 32 v70,2013-05-11 22:28:00,
2013-05-11 14:58:00,58.7,24.7,29.35,WSW,248,3.0,11.0,27,0.00,,,0.00,Weather View 32 v70,2013-05-11 22:58:00,
2013-05-11 15:00:00,58.7,24.7,29.35,WSW,248,3.0,11.0,27,0.00,,,0.00,Weather View 32 v70,2013-05-11 23:00:00,
2013-05-11 15:28:00,59.2,26.0,29.33,SW,236,5.0,11.0,28,0.00,,,0.00,Weather View 32 v70,2013-05-11 23:28:00,
2013-05-11 15:58:00,58.3,26.1,29.33,SW,233,3.0,11.0,29,0.00,,,0.00,Weather View 32 v70,2013-05-11 23:58:00,
2013-05-11 16:00:00,58.3,26.1,29.33,SW,233,3.0,11.0,29,0.00,,,0.00,Weather View 32 v70,2013-05-12 00:00:00,
2013-05-11 16:28:00,58.7,25.6,29.32,WSW,254,4.0,9.0,28,0.00,,,0.00,Weather View 32 v70,2013-05-12 00:28:00,
2013-05-11 16:58:00,58.5,25.4,29.31,WSW,242,2.0,9.0,28,0.00,,,0.00,Weather View 32 v70,2013-05-12 00:58:00,
2013-05-11 17:00:00,58.5,25.4,29.31,WSW,242,2.0,9.0,28,0.00,,,0.00,Weather View 32 v70,2013-05-12 01:00:00,
2013-05-11 17:27:00,58.8,26.5,29.30,WSW,237,4.0,9.0,29,0.00,,,0.00,Weather View 32 v70,2013-05-12 01:27:00,
2013-05-11 17:57:00,58.7,25.6,29.29,SW,232,2.0,7.0,28,0.00,,,0.00,Weather View 32 v70,2013-05-12 01:57:00,
2013-05-11 18:00:00,58.7,25.6,29.29,SW,232,2.0,7.0,28,0.00,,,0.00,Weather View 32 v70,2013-05-12 02:00:00,
2013-05-11 18:27:00,57.5,23.7,29.29,WSW,237,4.0,8.0,27,0.00,,,0.00,Weather View 32 v70,2013-05-12 02:27:00,
2013-05-11 18:58:00,56.2,25.1,29.29,WSW,251,4.0,8.0,30,0.00,,,0.00,Weather View 32 v70,2013-05-12 02:58:00,
2013-05-11 19:00:00,56.2,25.1,29.29,WSW,251,4.0,8.0,30,0.00,,,0.00,Weather View 32 v70,2013-05-12 03:00:00,
2013-05-11 19:28:00,55.9,24.9,29.29,WSW,237,3.0,8.0,30,0.00,,,0.00,Weather View 32 v70,2013-05-12 03:28:00,
2013-05-11 19:58:00,55.0,25.6,29.28,SW,234,2.0,10.0,32,0.00,,,0.00,Weather View 32 v70,2013-05-12 03:58:00,
2013-05-11 20:00:00,55.0,25.6,29.28,SW,234,2.0,10.0,32,0.00,,,0.00,Weather View 32 v70,2013-05-12 04:00:00,
2013-05-11 20:28:00,54.3,25.8,29.28,SW,233,1.0,10.0,33,0.00,,,0.00,Weather View 32 v70,2013-05-12 04:28:00,
2013-05-11 20:58:00,52.5,26.3,29.28,SW,232,3.0,9.0,36,0.00,,,0.00,Weather View 32 v70,2013-05-12 04:58:00,
2013-05-11 21:00:00,52.5,26.3,29.28,SW,232,3.0,9.0,36,0.00,,,0.00,Weather View 32 v70,2013-05-12 05:00:00,
2013-05-11 21:28:00,50.8,26.7,29.28,SSW,202,3.0,8.0,39,0.00,,,0.00,Weather View 32 v70,2013-05-12 05:28:00,
2013-05-11 21:58:00,49.5,26.7,29.28,SW,230,2.0,8.0,41,0.00,,,0.00,Weather View 32 v70,2013-05-12 05:58:00,
2013-05-11 22:00:00,49.5,26.7,29.28,SW,230,2.0,8.0,41,0.00,,,0.00,Weather View 32 v70,2013-05-12 06:00:00,
2013-05-11 22:28:00,48.4,26.3,29.28,WSW,243,2.0,6.0,42,0.00,,,0.00,Weather View 32 v70,2013-05-12 06:28:00,
2013-05-11 22:57:00,47.5,25.5,29.28,WSW,243,1.0,6.0,42,0.00,,,0.00,Weather View 32 v70,2013-05-12 06:57:00,
2013-05-11 23:00:00,47.5,25.5,29.28,WSW,243,1.0,6.0,42,0.00,,,0.00,Weather View 32 v70,2013-05-12 07:00:00,
2013-05-11 23:27:00,47.2,26.4,29.28,WSW,243,2.0,6.0,44,0.00,,,0.00,Weather View 32 v70,2013-05-12 07:27:00,
2013-05-11 23:58:00,46.5,26.3,29.27,WSW,243,2.0,6.0,45,0.00,,,0.00,Weather View 32 v70,2013-05-12 07:58:00,